createdAt,value
2022-10-14T06:21:19.399Z,99.90
2022-10-14T06:23:47.339Z,99.90
2022-10-14T06:26:15.277Z,99.90
2022-10-14T06:28:43.291Z,99.90
2022-10-14T06:31:11.185Z,99.90
2022-10-14T06:33:39.127Z,99.90
2022-10-14T06:36:08.011Z,99.90
2022-10-14T06:38:37.353Z,99.90
2022-10-14T06:41:05.336Z,99.90
2022-10-14T06:43:35.163Z,99.90
2022-10-14T06:46:04.316Z,99.90
2022-10-14T06:48:32.275Z,99.90
2022-10-14T06:51:00.957Z,99.90
2022-10-14T06:53:29.322Z,99.90
2022-10-14T06:56:03.263Z,99.90
2022-10-14T06:58:31.669Z,99.90
2022-10-14T07:01:02.539Z,99.90
2022-10-14T07:03:30.536Z,99.90
2022-10-14T07:05:58.467Z,99.90
2022-10-14T07:08:26.411Z,99.90
2022-10-14T07:10:54.412Z,99.90
2022-10-14T07:13:23.528Z,99.90
2022-10-14T07:15:52.445Z,99.90
2022-10-14T07:18:20.910Z,99.90
2022-10-14T07:20:48.806Z,99.90
2022-10-14T07:23:18.124Z,99.90
2022-10-14T07:25:46.408Z,99.90
2022-10-14T07:28:14.409Z,99.90
2022-10-14T07:30:43.688Z,99.90
2022-10-14T07:33:11.709Z,99.90
2022-10-14T07:35:39.915Z,99.90
2022-10-14T07:38:07.693Z,99.90
2022-10-14T07:40:35.800Z,99.90
2022-10-14T07:43:03.725Z,99.90
2022-10-14T07:45:35.520Z,99.90
2022-10-14T07:48:04.911Z,99.90
2022-10-14T07:50:32.970Z,99.90
2022-10-14T07:53:01.541Z,99.90
2022-10-14T07:55:29.564Z,99.90
2022-10-14T07:57:57.672Z,99.90
2022-10-14T08:00:25.608Z,99.90
2022-10-14T08:02:54.879Z,99.90
2022-10-14T08:05:39.477Z,99.90
2022-10-14T08:08:07.760Z,99.90
2022-10-14T08:10:36.732Z,99.90
2022-10-14T08:13:04.613Z,99.90
2022-10-14T08:15:35.353Z,99.90
2022-10-14T08:18:03.196Z,99.90
2022-10-14T08:20:32.579Z,99.90
2022-10-14T08:23:00.632Z,99.90
2022-10-14T08:25:28.524Z,99.90
2022-10-14T08:27:57.638Z,99.90
2022-10-14T08:30:25.825Z,99.90
2022-10-14T08:32:53.777Z,99.90
2022-10-14T08:35:21.943Z,99.90
2022-10-14T08:37:58.903Z,99.90
2022-10-14T08:40:29.257Z,99.90
2022-10-14T08:43:02.229Z,99.90
2022-10-14T08:45:35.160Z,99.90
2022-10-14T08:48:09.578Z,99.90
2022-10-14T08:50:42.438Z,99.90
2022-10-14T08:53:15.707Z,99.90
2022-10-14T08:55:47.429Z,99.90
2022-10-14T08:58:21.620Z,99.90
2022-10-14T09:00:52.540Z,99.90
2022-10-14T09:03:23.648Z,99.90
2022-10-14T09:05:58.490Z,99.90
2022-10-14T09:08:34.057Z,99.90
2022-10-14T09:11:02.454Z,99.90
2022-10-14T09:13:35.354Z,99.90
2022-10-14T09:16:07.593Z,99.90
2022-10-14T09:18:41.405Z,99.90
2022-10-14T09:21:40.828Z,99.90
2022-10-14T09:24:17.928Z,99.90
2022-10-14T09:26:48.130Z,99.90
2022-10-14T09:29:24.456Z,99.90
2022-10-14T09:31:52.833Z,99.90
2022-10-14T09:34:25.788Z,99.90
2022-10-14T09:36:55.025Z,99.90
2022-10-14T09:39:24.353Z,99.90
2022-10-14T09:41:55.380Z,99.90
2022-10-14T09:44:25.819Z,99.90
2022-10-14T09:46:57.404Z,99.90
2022-10-14T09:49:35.858Z,99.90
2022-10-14T09:52:04.067Z,99.50
2022-10-14T09:54:34.372Z,97.20
2022-10-14T09:57:07.374Z,98.50
2022-10-14T09:59:48.690Z,98.20
2022-10-14T10:02:24.247Z,97.50
2022-10-14T10:04:54.901Z,98.50
2022-10-14T10:07:30.937Z,97.00
2022-10-14T10:10:01.740Z,97.50
2022-10-14T10:12:33.134Z,97.50
2022-10-14T10:15:03.763Z,97.10
2022-10-14T10:17:32.869Z,95.70
2022-10-14T10:20:28.269Z,94.70
2022-10-14T10:22:57.647Z,94.40
2022-10-14T10:25:29.443Z,94.30
2022-10-14T10:28:00.312Z,93.90
2022-10-14T10:30:32.461Z,92.20
2022-10-14T10:33:19.203Z,91.70
2022-10-14T10:38:59.612Z,89.20
2022-10-14T10:41:58.411Z,89.20
2022-10-14T10:44:47.624Z,85.30
2022-10-14T10:47:27.780Z,83.30
2022-10-14T10:50:10.269Z,78.50
2022-10-14T10:52:56.532Z,75.90
2022-10-14T10:55:35.540Z,73.80
2022-10-14T10:58:18.148Z,72.50
2022-10-14T11:00:53.136Z,73.70
2022-10-14T11:03:36.802Z,70.70
2022-10-14T11:06:11.814Z,71.60
2022-10-14T11:09:15.026Z,72.40
2022-10-14T11:12:07.808Z,75.30
2022-10-14T11:14:58.975Z,77.60
2022-10-14T11:17:34.071Z,82.40
2022-10-14T11:20:13.352Z,83.70
2022-10-14T11:23:00.089Z,87.20
2022-10-14T11:25:46.307Z,88.80
2022-10-14T11:28:24.351Z,90.30
2022-10-14T11:31:02.233Z,91.10
2022-10-14T11:33:44.597Z,91.40
2022-10-14T11:36:22.521Z,92.00
2022-10-14T11:39:05.553Z,92.20
2022-10-14T11:41:49.963Z,92.90
2022-10-14T11:44:30.064Z,92.90
2022-10-14T11:47:04.474Z,93.40
2022-10-14T11:49:38.136Z,93.40
2022-10-14T11:52:09.986Z,93.70
2022-10-14T11:54:41.194Z,93.10
2022-10-14T11:57:15.391Z,93.50
2022-10-14T11:59:49.873Z,93.90
2022-10-14T12:02:35.218Z,94.00
2022-10-14T12:05:08.936Z,93.80
2022-10-14T12:07:43.161Z,94.60
2022-10-14T12:10:22.553Z,94.00
2022-10-14T12:12:52.316Z,93.90
2022-10-14T12:15:23.219Z,94.20
2022-10-14T12:17:55.697Z,94.40
2022-10-14T12:20:32.588Z,94.70
2022-10-14T12:23:01.922Z,95.20
2022-10-14T12:25:36.782Z,95.70
2022-10-14T12:28:05.310Z,95.30
2022-10-14T12:30:36.031Z,95.50
2022-10-14T12:33:07.977Z,95.70
2022-10-14T12:35:54.387Z,95.50
2022-10-14T12:38:23.349Z,95.40
2022-10-14T12:40:51.168Z,96.00
2022-10-14T12:43:25.619Z,96.30
2022-10-14T12:46:03.882Z,96.70
2022-10-14T12:48:35.832Z,97.00
2022-10-14T12:51:13.286Z,97.60
2022-10-14T12:53:50.977Z,97.80
2022-10-14T12:56:32.190Z,98.40
2022-10-14T12:59:02.656Z,98.70
2022-10-14T13:01:35.322Z,99.10
2022-10-14T13:04:08.821Z,99.30
2022-10-14T13:06:39.364Z,99.50
2022-10-14T13:09:40.861Z,99.90
2022-10-14T13:12:47.894Z,99.20
2022-10-14T13:15:48.537Z,99.40
2022-10-14T13:18:51.383Z,99.60
2022-10-14T13:21:51.452Z,99.40
2022-10-14T13:24:26.034Z,99.40
2022-10-14T13:27:06.222Z,99.50
2022-10-14T13:29:48.631Z,99.50
2022-10-14T13:32:31.143Z,99.90
2022-10-14T13:35:07.983Z,99.90
2022-10-14T13:37:42.077Z,99.50
2022-10-14T13:40:26.665Z,99.30
2022-10-14T13:42:57.938Z,99.80
2022-10-14T13:45:37.048Z,99.90
2022-10-14T13:48:11.097Z,99.90
2022-10-14T13:50:39.673Z,99.90
2022-10-14T13:53:18.073Z,99.90
2022-10-14T13:55:51.715Z,99.90
2022-10-14T13:58:24.821Z,99.90
2022-10-14T14:01:01.839Z,99.90
2022-10-14T14:03:33.949Z,99.90
2022-10-14T14:06:04.172Z,99.90
2022-10-14T14:08:40.501Z,99.90
2022-10-14T14:11:18.701Z,99.90
2022-10-14T14:14:01.435Z,99.90
2022-10-14T14:16:36.329Z,99.90
2022-10-14T14:19:09.636Z,99.90
2022-10-14T14:21:38.424Z,99.90
2022-10-14T14:24:18.293Z,99.90
2022-10-14T14:26:46.541Z,99.90
2022-10-14T14:29:26.825Z,99.90
2022-10-14T14:32:06.014Z,99.90
2022-10-14T14:34:37.201Z,99.90
2022-10-14T14:37:23.513Z,99.90
2022-10-14T14:39:59.320Z,99.90
2022-10-14T14:42:29.814Z,99.90
2022-10-14T14:45:02.075Z,99.90
2022-10-14T14:47:31.079Z,99.90
2022-10-14T14:50:28.534Z,99.90
2022-10-14T14:52:51.466Z,99.90
2022-10-14T14:55:44.214Z,99.90
2022-10-14T14:58:23.765Z,99.90
2022-10-14T15:00:54.541Z,99.90
2022-10-14T15:03:24.381Z,99.90
2022-10-14T15:05:54.094Z,99.90
2022-10-14T15:08:24.965Z,99.90
2022-10-14T15:10:56.427Z,99.90
2022-10-14T15:13:33.878Z,99.90
2022-10-14T15:16:01.790Z,99.90
2022-10-14T15:18:30.574Z,99.90
2022-10-14T15:21:16.335Z,99.90
2022-10-14T15:23:58.639Z,99.90
2022-10-14T15:26:34.356Z,99.90
2022-10-14T15:29:17.898Z,99.90
2022-10-14T15:31:48.251Z,99.90
2022-10-14T15:34:19.689Z,99.90
2022-10-14T15:36:51.126Z,99.90
2022-10-14T15:39:18.982Z,99.90
2022-10-14T15:41:48.462Z,99.90
2022-10-14T15:44:16.979Z,99.90
2022-10-14T15:47:00.339Z,99.90
2022-10-14T15:49:31.320Z,99.90
2022-10-14T15:51:59.194Z,99.90
2022-10-14T15:54:27.788Z,99.90
2022-10-14T15:56:58.461Z,99.90
2022-10-14T15:59:27.578Z,99.90
2022-10-14T16:01:55.586Z,99.90
2022-10-14T16:04:25.901Z,99.90
2022-10-14T16:06:55.179Z,99.90
2022-10-14T16:09:23.579Z,99.90
2022-10-14T16:11:57.256Z,99.90
2022-10-14T16:14:27.712Z,99.90
2022-10-14T16:16:56.163Z,99.90
2022-10-14T16:19:23.992Z,99.90
2022-10-14T16:21:51.823Z,99.90
2022-10-14T16:24:21.874Z,99.90
2022-10-14T16:26:50.822Z,99.90
2022-10-14T16:29:19.353Z,99.90
2022-10-14T16:31:50.215Z,99.90
2022-10-14T16:34:19.442Z,99.90
2022-10-14T16:36:48.817Z,99.90
2022-10-14T16:39:17.937Z,99.90
2022-10-14T16:41:46.141Z,99.90
2022-10-14T16:44:25.027Z,99.90
2022-10-14T16:47:13.099Z,99.90
2022-10-14T16:49:41.434Z,99.90
2022-10-14T16:52:09.678Z,99.90
2022-10-14T16:54:38.041Z,99.90
2022-10-14T16:57:06.850Z,99.90
2022-10-14T16:59:34.898Z,99.90
2022-10-14T17:02:05.337Z,99.90
2022-10-14T17:04:33.611Z,99.90
2022-10-14T17:07:07.007Z,99.90
2022-10-14T17:09:36.172Z,99.90
2022-10-14T17:12:08.043Z,99.90
2022-10-14T17:14:39.277Z,99.90
2022-10-14T17:17:08.830Z,99.90
2022-10-14T17:19:36.952Z,99.90
2022-10-14T17:22:05.005Z,99.90
2022-10-14T17:24:33.100Z,99.90
2022-10-14T17:27:04.366Z,99.90
2022-10-14T17:29:32.587Z,99.90
2022-10-14T17:32:00.495Z,99.90
2022-10-14T17:34:29.724Z,99.90
2022-10-14T17:36:59.611Z,99.90
2022-10-14T17:39:29.558Z,99.90
2022-10-14T17:41:57.871Z,99.90
2022-10-14T17:44:26.263Z,99.90
2022-10-14T17:46:54.188Z,99.90
2022-10-14T17:49:22.342Z,99.90
2022-10-14T17:51:51.756Z,99.90
2022-10-14T17:54:19.686Z,99.90
2022-10-14T17:56:47.723Z,99.90
2022-10-14T17:59:15.750Z,99.90
2022-10-14T18:02:01.641Z,99.90
2022-10-14T18:04:30.402Z,99.90
2022-10-14T18:06:59.612Z,99.90
2022-10-14T18:09:27.518Z,99.90
2022-10-14T18:12:08.101Z,99.90
2022-10-14T18:14:36.454Z,99.90
2022-10-14T18:17:05.304Z,99.90
2022-10-14T18:19:33.862Z,99.90
2022-10-14T18:22:03.415Z,99.90
2022-10-14T18:24:32.290Z,99.90
2022-10-14T18:27:00.307Z,99.90
2022-10-14T18:29:28.434Z,99.90
2022-10-14T18:31:56.297Z,99.90
2022-10-14T18:34:25.374Z,99.90
2022-10-14T18:36:53.382Z,99.90
2022-10-14T18:39:22.871Z,99.90
2022-10-14T18:41:50.876Z,99.90
2022-10-14T18:44:19.232Z,99.90
2022-10-14T18:46:48.005Z,99.90
2022-10-14T18:49:16.022Z,99.90
2022-10-14T18:51:44.444Z,99.90
2022-10-14T18:54:15.253Z,99.90
2022-10-14T18:56:45.548Z,99.90
2022-10-14T18:59:15.637Z,99.90
2022-10-14T19:01:44.406Z,99.90
2022-10-14T19:04:14.608Z,99.90
2022-10-14T19:06:44.959Z,99.90
2022-10-14T19:09:13.914Z,99.90
2022-10-14T19:11:42.890Z,99.90
2022-10-14T19:14:14.362Z,99.90
2022-10-14T19:16:42.806Z,99.90
2022-10-14T19:19:15.199Z,99.90
2022-10-14T19:21:43.584Z,99.90
2022-10-14T19:24:12.663Z,99.90
2022-10-14T19:26:42.512Z,99.90
2022-10-14T19:29:13.836Z,99.90
2022-10-14T19:31:43.685Z,99.90
2022-10-14T19:34:13.971Z,99.90
2022-10-14T19:36:42.554Z,99.90
2022-10-14T19:39:13.926Z,99.90
2022-10-14T19:41:44.782Z,99.90
2022-10-14T19:44:15.653Z,99.90
2022-10-14T19:46:43.961Z,99.90
2022-10-14T19:49:13.818Z,99.90
2022-10-14T19:51:42.218Z,99.90
2022-10-14T19:54:12.240Z,99.90
2022-10-14T19:56:40.348Z,99.90
2022-10-14T19:59:08.530Z,99.90
2022-10-14T20:01:37.746Z,99.90
2022-10-14T20:04:07.085Z,99.90
2022-10-14T20:06:37.803Z,99.90
2022-10-14T20:09:06.716Z,99.90
2022-10-14T20:11:35.470Z,99.90
2022-10-14T20:14:03.345Z,99.90
2022-10-14T20:16:31.365Z,99.90
2022-10-14T20:19:00.643Z,99.90
2022-10-14T20:21:30.003Z,99.90
2022-10-14T20:23:59.129Z,99.90
2022-10-14T20:26:27.556Z,99.90
2022-10-14T20:28:55.885Z,99.90
2022-10-14T20:31:25.433Z,99.90
2022-10-14T20:33:53.470Z,99.90
2022-10-14T20:36:23.622Z,99.90
2022-10-14T20:38:52.077Z,99.90
2022-10-14T20:41:22.371Z,99.90
2022-10-14T20:43:51.045Z,99.90
2022-10-14T20:46:19.087Z,99.90
2022-10-14T20:48:47.351Z,99.90
2022-10-14T20:51:17.546Z,99.90
2022-10-14T20:53:46.849Z,99.90
2022-10-14T20:56:15.652Z,99.90
2022-10-14T20:58:44.140Z,99.90
2022-10-14T21:01:14.833Z,99.90
2022-10-14T21:03:44.420Z,99.90
2022-10-14T21:06:14.273Z,99.90
2022-10-14T21:08:42.333Z,99.90
2022-10-14T21:11:15.326Z,99.90
2022-10-14T21:13:45.854Z,99.90
2022-10-14T21:16:15.542Z,99.90
2022-10-14T21:18:46.930Z,99.90
2022-10-14T21:21:16.795Z,99.90
2022-10-14T21:23:45.202Z,99.90
2022-10-14T21:26:14.709Z,99.90
2022-10-14T21:28:42.925Z,99.90
2022-10-14T21:31:14.774Z,99.90
2022-10-14T21:33:45.506Z,99.90
2022-10-14T21:36:15.703Z,99.90
2022-10-14T21:38:43.657Z,99.90
2022-10-14T21:41:12.170Z,99.90
2022-10-14T21:43:41.639Z,99.90
2022-10-14T21:46:11.083Z,99.90
2022-10-14T21:48:39.340Z,99.90
2022-10-14T21:51:10.274Z,99.90
2022-10-14T21:53:39.158Z,99.90
2022-10-14T21:56:07.691Z,99.90
2022-10-14T21:58:35.650Z,99.90
2022-10-14T22:01:07.637Z,99.90
2022-10-14T22:03:36.822Z,99.90
2022-10-14T22:06:07.426Z,99.90
2022-10-14T22:08:37.054Z,99.90
2022-10-14T22:11:06.280Z,99.90
2022-10-14T22:13:35.454Z,99.90
2022-10-14T22:16:04.873Z,99.90
2022-10-14T22:18:32.804Z,99.90
2022-10-14T22:21:04.992Z,99.90
2022-10-14T22:23:33.035Z,99.90
2022-10-14T22:26:02.394Z,99.90
2022-10-14T22:28:31.667Z,99.90
2022-10-14T22:31:06.285Z,99.90
2022-10-14T22:33:36.224Z,99.90
2022-10-14T22:36:08.925Z,99.90
2022-10-14T22:38:37.466Z,99.90
2022-10-14T22:41:06.545Z,99.90
2022-10-14T22:43:34.585Z,99.90
2022-10-14T22:46:03.335Z,99.90
2022-10-14T22:48:33.228Z,99.90
2022-10-14T22:51:05.446Z,99.90
2022-10-14T22:53:33.860Z,99.90
2022-10-14T22:56:02.281Z,99.90
2022-10-14T22:58:30.040Z,99.90
2022-10-14T23:00:58.336Z,99.90
2022-10-14T23:03:27.143Z,99.90
2022-10-14T23:06:01.081Z,99.90
2022-10-14T23:08:29.104Z,99.90
2022-10-14T23:10:57.989Z,99.90
2022-10-14T23:13:26.432Z,99.90
2022-10-14T23:15:57.502Z,99.90
2022-10-14T23:18:25.740Z,99.90
2022-10-14T23:20:54.009Z,99.90
2022-10-14T23:23:23.324Z,99.90
2022-10-14T23:25:51.199Z,99.90
2022-10-14T23:28:19.199Z,99.90
2022-10-14T23:30:47.189Z,99.90
2022-10-14T23:33:15.112Z,99.90
2022-10-14T23:35:43.037Z,99.90
2022-10-14T23:38:12.352Z,99.90
2022-10-14T23:40:41.731Z,99.90
2022-10-14T23:43:09.581Z,99.90
2022-10-14T23:45:37.739Z,99.90
2022-10-14T23:48:06.075Z,99.90
2022-10-14T23:50:34.296Z,99.90
2022-10-14T23:53:02.174Z,99.90
2022-10-14T23:55:30.585Z,99.90
2022-10-14T23:58:00.256Z,99.90
